Ty Woods — WDB5332 — position and weather

sailwx.info

Track history (hours):
 
Tides and Currents Weather Stations Pressure Air Temp Water Temp Dewpoint Dewpoint Depression Visibility Wind Speed Wind Dir Waves Ship Positions

Ty Woods

Owner: San Diego Towing & Marine Services,Inc., San Diego, CA. More information available from US FCC via Universal Licensing System and Coast Guard Vessel Documentation Center.

Last reported at 2017-Jul-09 04:47 UTC. Time now 2017-Jul-27 16:40 UTC.
Position N 33°46' W 118°13'.
Warning: this ship's position is 18 days out of date.

; draft 2 m.

Type: Ship. MMSI: 366908460.

Date/timePositionNaut miles runAvg speedWind from/ knotsBaromVisibWave heightAir tempDewpointWater temp
2017-Jul-09 04:47N 33°46' W 118°13'0 1.4
2017-Jul-09 04:30N 33°46' W 118°13'5 9.1
2017-Jul-09 04:00N 33°42' W 118°15'817.0
2017-Jul-09 03:30N 33°37' W 118°23'916.6
2017-Jul-09 02:57N 33°32' W 118°33'716.6
2017-Jul-09 02:30N 33°27' W 118°40'917.3
2017-Jul-09 02:00N 33°20' W 118°46'917.2
2017-Jul-09 01:30N 33°13' W 118°52'917.4
2017-Jul-09 00:58N 33°06' W 118°59'817.2
2017-Jul-09 00:30N 33°00' W 119°06'816.8
2017-Jul-09 00:00N 32°54' W 119°12'4016.5
2017-Jul-08 21:34N 32°21' W 119°40'316.5
2017-Jul-08 21:24N 32°19' W 119°42'614.9
2017-Jul-08 21:00N 32°14' W 119°47'30 9.5
2017-Jul-08 17:48N 32°28' W 119°15'717.4
2017-Jul-08 17:22N 32°35' W 119°10'817.1
2017-Jul-08 16:55N 32°41' W 119°06'917.2
2017-Jul-08 16:23N 32°50' W 119°01'616.7
2017-Jul-08 16:00N 32°55' W 118°57'816.5
2017-Jul-08 15:30N 33°03' W 118°53'816.8
2017-Jul-08 15:00N 33°10' W 118°49'2216.9
2017-Jul-08 13:44N 33°29' W 118°37'417.4
2017-Jul-08 13:30N 33°31' W 118°33'917.2
2017-Jul-08 13:01N 33°35' W 118°24'816.6
2017-Jul-08 12:30N 33°40' W 118°16'510.9
2017-Jul-08 12:00N 33°45' W 118°13'1 1.7
2017-Jul-08 11:30N 33°46' W 118°13'  
2017-Jul-05 07:03N 33°46' W 118°13'0 0.0
2017-Jul-05 07:00N 33°46' W 118°13'3 6.7
2017-Jul-05 06:30N 33°43' W 118°11'816.7
2017-Jul-05 06:00N 33°37' W 118°05'713.5
2017-Jul-05 05:30N 33°32' W 117°58'815.1
2017-Jul-05 05:00N 33°32' W 117°49'0 1.0
2017-Jul-05 04:30N 33°33' W 117°49'0 0.5
2017-Jul-05 04:00N 33°33' W 117°49'0 0.1
2017-Jul-05 03:30N 33°33' W 117°49'0 0.2
2017-Jul-05 03:00N 33°33' W 117°49'0 0.2
2017-Jul-05 02:30N 33°33' W 117°49'0 1.0
2017-Jul-05 02:00N 33°33' W 117°49'0 0.8
2017-Jul-05 01:31N 33°33' W 117°49'1 1.7
2017-Jul-05 01:01N 33°33' W 117°50'713.1
2017-Jul-05 00:30N 33°35' W 117°58'918.5
2017-Jul-05 00:00N 33°41' W 118°06'714.3
2017-Jul-04 23:30N 33°45' W 118°13'1 2.0
2017-Jul-04 23:01N 33°46' W 118°13'  
2017-Jun-30 23:41N 33°36' W 117°58'415.9
2017-Jun-30 23:28N 33°34' W 117°55'715.8
2017-Jun-30 23:00N 33°29' W 117°48'816.2
2017-Jun-30 22:30N 33°24' W 117°41'816.7
2017-Jun-30 22:00N 33°19' W 117°33'816.4
2017-Jun-30 21:31N 33°13' W 117°26'2 3.3
2017-Jun-30 21:00N 33°13' W 117°24'3 6.1
2017-Jun-30 20:30N 33°13' W 117°28'816.7
2017-Jun-30 20:00N 33°15' W 117°37'5 9.9
2017-Jun-30 19:30N 33°16' W 117°43'0 0.1
2017-Jun-30 19:01N 33°16' W 117°43'0 0.3
2017-Jun-30 18:30N 33°16' W 117°43'5 9.5
2017-Jun-30 18:00N 33°15' W 117°38'815.9
2017-Jun-30 17:31N 33°13' W 117°29'4 7.3
2017-Jun-30 16:58N 33°13' W 117°24'0 0.0
2017-Jun-30 16:30N 33°13' W 117°24'0 0.0
2017-Jun-30 00:32N 33°13' W 117°24'0 0.0
2017-Jun-30 00:30N 33°13' W 117°24'510.6
2017-Jun-30 00:00N 33°14' W 117°30'816.8
2017-Jun-29 23:31N 33°15' W 117°40'4 8.2
2017-Jun-29 23:00N 33°15' W 117°35'817.0
2017-Jun-29 22:30N 33°13' W 117°25'1 2.3
2017-Jun-29 22:00N 33°13' W 117°24'611.9
2017-Jun-29 21:30N 33°13' W 117°31'816.7
2017-Jun-29 21:01N 33°15' W 117°41'714.1
2017-Jun-29 20:31N 33°14' W 117°32'714.7
2017-Jun-29 20:00N 33°12' W 117°24'1 1.0
2017-Jun-29 19:31N 33°13' W 117°24'611.8
2017-Jun-29 19:01N 33°15' W 117°31'3 5.3
2017-Jun-29 18:30N 33°14' W 117°34'612.2
2017-Jun-29 18:00N 33°13' W 117°27'2 4.6
2017-Jun-29 17:30N 33°13' W 117°24'612.6
2017-Jun-29 17:00N 33°14' W 117°31'3 5.3
2017-Jun-29 16:31N 33°14' W 117°34'0 0.3
2017-Jun-29 16:01N 33°14' W 117°34'1 1.9
2017-Jun-29 15:30N 33°15' W 117°34'816.7
2017-Jun-29 15:00N 33°12' W 117°25'1 1.6
2017-Jun-29 14:30N 33°13' W 117°24'9 8.8
2017-Jun-29 13:30N 33°17' W 117°33'816.3
2017-Jun-29 13:00N 33°22' W 117°41'816.9
2017-Jun-29 12:30N 33°28' W 117°48'1316.4
2017-Jun-29 11:42N 33°36' W 118°01'416.2
2017-Jun-29 11:26N 33°39' W 118°05'815.7
2017-Jun-29 10:53N 33°44' W 118°13'  
Track history (hours):
 
Tides and Currents Weather Stations Pressure Air Temp Water Temp Dewpoint Dewpoint Depression Visibility Wind Speed Wind Dir Waves Ship Positions

Ty Woods

Owner: San Diego Towing & Marine Services,Inc., San Diego, CA. More information available from US FCC via Universal Licensing System and Coast Guard Vessel Documentation Center.

Last reported at 2017-Jul-09 04:47 UTC. Time now 2017-Jul-27 16:40 UTC.
Position N 33°46' W 118°13'.
Warning: this ship's position is 18 days out of date.

; draft 2 m.

Type: Ship. MMSI: 366908460.

Date/timePositionNaut miles runAvg speedWind from/ knotsBaromVisibWave heightAir tempDewpointWater temp
2017-Jul-09 04:47N 33°46' W 118°13'0 1.4
2017-Jul-09 04:30N 33°46' W 118°13'5 9.1
2017-Jul-09 04:00N 33°42' W 118°15'817.0
2017-Jul-09 03:30N 33°37' W 118°23'916.6
2017-Jul-09 02:57N 33°32' W 118°33'716.6
2017-Jul-09 02:30N 33°27' W 118°40'917.3
2017-Jul-09 02:00N 33°20' W 118°46'917.2
2017-Jul-09 01:30N 33°13' W 118°52'917.4
2017-Jul-09 00:58N 33°06' W 118°59'817.2
2017-Jul-09 00:30N 33°00' W 119°06'816.8
2017-Jul-09 00:00N 32°54' W 119°12'4016.5
2017-Jul-08 21:34N 32°21' W 119°40'316.5
2017-Jul-08 21:24N 32°19' W 119°42'614.9
2017-Jul-08 21:00N 32°14' W 119°47'30 9.5
2017-Jul-08 17:48N 32°28' W 119°15'717.4
2017-Jul-08 17:22N 32°35' W 119°10'817.1
2017-Jul-08 16:55N 32°41' W 119°06'917.2
2017-Jul-08 16:23N 32°50' W 119°01'616.7
2017-Jul-08 16:00N 32°55' W 118°57'816.5
2017-Jul-08 15:30N 33°03' W 118°53'816.8
2017-Jul-08 15:00N 33°10' W 118°49'2216.9
2017-Jul-08 13:44N 33°29' W 118°37'417.4
2017-Jul-08 13:30N 33°31' W 118°33'917.2
2017-Jul-08 13:01N 33°35' W 118°24'816.6
2017-Jul-08 12:30N 33°40' W 118°16'510.9
2017-Jul-08 12:00N 33°45' W 118°13'1 1.7
2017-Jul-08 11:30N 33°46' W 118°13'  
2017-Jul-05 07:03N 33°46' W 118°13'0 0.0
2017-Jul-05 07:00N 33°46' W 118°13'3 6.7
2017-Jul-05 06:30N 33°43' W 118°11'816.7
2017-Jul-05 06:00N 33°37' W 118°05'713.5
2017-Jul-05 05:30N 33°32' W 117°58'815.1
2017-Jul-05 05:00N 33°32' W 117°49'0 1.0
2017-Jul-05 04:30N 33°33' W 117°49'0 0.5
2017-Jul-05 04:00N 33°33' W 117°49'0 0.1
2017-Jul-05 03:30N 33°33' W 117°49'0 0.2
2017-Jul-05 03:00N 33°33' W 117°49'0 0.2
2017-Jul-05 02:30N 33°33' W 117°49'0 1.0
2017-Jul-05 02:00N 33°33' W 117°49'0 0.8
2017-Jul-05 01:31N 33°33' W 117°49'1 1.7
2017-Jul-05 01:01N 33°33' W 117°50'713.1
2017-Jul-05 00:30N 33°35' W 117°58'918.5
2017-Jul-05 00:00N 33°41' W 118°06'714.3
2017-Jul-04 23:30N 33°45' W 118°13'1 2.0
2017-Jul-04 23:01N 33°46' W 118°13'  
2017-Jun-30 23:41N 33°36' W 117°58'415.9
2017-Jun-30 23:28N 33°34' W 117°55'715.8
2017-Jun-30 23:00N 33°29' W 117°48'816.2
2017-Jun-30 22:30N 33°24' W 117°41'816.7
2017-Jun-30 22:00N 33°19' W 117°33'816.4
2017-Jun-30 21:31N 33°13' W 117°26'2 3.3
2017-Jun-30 21:00N 33°13' W 117°24'3 6.1
2017-Jun-30 20:30N 33°13' W 117°28'816.7
2017-Jun-30 20:00N 33°15' W 117°37'5 9.9
2017-Jun-30 19:30N 33°16' W 117°43'0 0.1
2017-Jun-30 19:01N 33°16' W 117°43'0 0.3
2017-Jun-30 18:30N 33°16' W 117°43'5 9.5
2017-Jun-30 18:00N 33°15' W 117°38'815.9
2017-Jun-30 17:31N 33°13' W 117°29'4 7.3
2017-Jun-30 16:58N 33°13' W 117°24'0 0.0
2017-Jun-30 16:30N 33°13' W 117°24'0 0.0
2017-Jun-30 00:32N 33°13' W 117°24'0 0.0
2017-Jun-30 00:30N 33°13' W 117°24'510.6
2017-Jun-30 00:00N 33°14' W 117°30'816.8
2017-Jun-29 23:31N 33°15' W 117°40'4 8.2
2017-Jun-29 23:00N 33°15' W 117°35'817.0
2017-Jun-29 22:30N 33°13' W 117°25'1 2.3
2017-Jun-29 22:00N 33°13' W 117°24'611.9
2017-Jun-29 21:30N 33°13' W 117°31'816.7
2017-Jun-29 21:01N 33°15' W 117°41'714.1
2017-Jun-29 20:31N 33°14' W 117°32'714.7
2017-Jun-29 20:00N 33°12' W 117°24'1 1.0
2017-Jun-29 19:31N 33°13' W 117°24'611.8
2017-Jun-29 19:01N 33°15' W 117°31'3 5.3
2017-Jun-29 18:30N 33°14' W 117°34'612.2
2017-Jun-29 18:00N 33°13' W 117°27'2 4.6
2017-Jun-29 17:30N 33°13' W 117°24'612.6
2017-Jun-29 17:00N 33°14' W 117°31'3 5.3
2017-Jun-29 16:31N 33°14' W 117°34'0 0.3
2017-Jun-29 16:01N 33°14' W 117°34'1 1.9
2017-Jun-29 15:30N 33°15' W 117°34'816.7
2017-Jun-29 15:00N 33°12' W 117°25'1 1.6
2017-Jun-29 14:30N 33°13' W 117°24'9 8.8
2017-Jun-29 13:30N 33°17' W 117°33'816.3
2017-Jun-29 13:00N 33°22' W 117°41'816.9
2017-Jun-29 12:30N 33°28' W 117°48'1316.4
2017-Jun-29 11:42N 33°36' W 118°01'416.2
2017-Jun-29 11:26N 33°39' W 118°05'815.7
2017-Jun-29 10:53N 33°44' W 118°13'  

Dump ship's entire track history